Time;durP1;ratioP1;P1;durP2;ratioP2;P2;SDS_P1;SDS_P2;PMS_P1;PMS_P2;Temp;Humidity;BMP_temperature;BMP_pressure;BME280_temperature;BME280_humidity;BME280_pressure;Samples;Min_cycle;Max_cycle;Signal;HPM_P1;HPM_P2
2022/05/27 00:00:19;;;;;;;4.50;2.80;;;;;;;14.93;77.67;101891.16;5069231;28;20112;-65
2022/05/27 00:02:47;;;;;;;6.20;2.60;;;;;;;14.92;77.56;101895.69;5063448;28;20035;-65
2022/05/27 00:05:14;;;;;;;9.82;3.67;;;;;;;14.94;77.50;101890.16;5049920;28;20170;-65
2022/05/27 00:07:39;;;;;;;8.55;3.17;;;;;;;14.83;77.85;101876.25;5049870;28;20029;-65
2022/05/27 00:10:05;;;;;;;5.45;2.42;;;;;;;14.93;78.63;101891.97;5049831;28;20442;-65
2022/05/27 00:12:31;;;;;;;6.85;2.60;;;;;;;14.92;78.38;101887.66;5049684;28;20077;-65
2022/05/27 00:14:56;;;;;;;5.65;3.65;;;;;;;14.88;78.87;101889.06;5050128;28;20068;-65
2022/05/27 00:17:21;;;;;;;7.22;3.08;;;;;;;14.86;78.89;101878.53;5049730;28;20064;-65
2022/05/27 00:19:47;;;;;;;9.45;4.32;;;;;;;14.84;78.98;101883.28;5049654;28;20029;-69
2022/05/27 00:22:13;;;;;;;8.05;2.75;;;;;;;14.82;78.67;101879.13;5049701;28;20035;-69
2022/05/27 00:24:38;;;;;;;5.90;2.40;;;;;;;14.79;78.56;101871.47;5049723;28;21029;-69
2022/05/27 00:27:08;;;;;;;4.70;2.35;;;;;;;14.79;78.77;101874.16;5049630;28;20028;-69
2022/05/27 00:29:34;;;;;;;7.15;2.65;;;;;;;14.77;78.75;101878.88;5049737;28;20128;-69
2022/05/27 00:31:59;;;;;;;9.15;3.83;;;;;;;14.80;79.00;101878.50;5049586;28;20546;-69
2022/05/27 00:34:24;;;;;;;8.07;2.95;;;;;;;14.80;78.28;101882.03;5049475;28;20037;-69
2022/05/27 00:36:50;;;;;;;4.78;2.63;;;;;;;14.81;78.84;101881.00;5031701;28;20368;-69
2022/05/27 00:39:15;;;;;;;5.15;2.40;;;;;;;14.81;78.77;101878.31;5049588;28;20064;-69
2022/05/27 00:41:41;;;;;;;6.03;3.28;;;;;;;14.81;79.29;101885.53;5049608;28;20041;-69
2022/05/27 00:44:07;;;;;;;6.95;3.85;;;;;;;14.82;79.09;101881.81;5049448;28;20400;-69
2022/05/27 00:46:34;;;;;;;10.32;3.88;;;;;;;14.81;78.97;101875.63;5049456;28;20041;-69
2022/05/27 00:49:15;;;;;;;7.95;3.85;;;;;;;14.81;78.83;101870.25;5031558;28;20439;-69
2022/05/27 00:51:51;;;;;;;5.88;2.78;;;;;;;14.81;79.18;101870.25;5049583;28;20132;-69
2022/05/27 00:54:25;;;;;;;6.38;2.72;;;;;;;14.81;79.28;101875.63;5049315;28;20119;-69
2022/05/27 00:56:58;;;;;;;6.10;3.35;;;;;;;14.80;79.40;101870.44;5049293;28;20503;-69
2022/05/27 00:59:29;;;;;;;10.82;3.55;;;;;;;14.79;80.07;101872.28;5049927;28;20025;-69
2022/05/27 01:01:54;;;;;;;11.45;3.30;;;;;;;14.75;80.95;101868.38;5053238;28;20037;-69
2022/05/27 01:04:21;;;;;;;18.92;6.05;;;;;;;14.73;82.44;101870.41;5053195;28;20041;-69
2022/05/27 01:06:47;;;;;;;5.57;2.75;;;;;;;14.67;82.77;101855.06;5052796;28;20064;-69
2022/05/27 01:09:13;;;;;;;6.50;3.40;;;;;;;14.58;82.97;101859.78;5053071;28;20452;-69
2022/05/27 01:11:44;;;;;;;7.47;3.28;;;;;;;14.58;83.84;101864.34;5052902;28;20387;-69
2022/05/27 01:14:41;;;;;;;8.98;3.90;;;;;;;14.53;83.98;101858.72;5052765;28;20392;-69
2022/05/27 01:17:12;;;;;;;11.60;4.45;;;;;;;14.43;85.28;101854.50;5052713;28;20067;-69
2022/05/27 01:22:54;;;;;;;;;;;;;;;14.37;84.21;101863.34;5053377;28;20258;-69
2022/05/27 01:25:43;;;;;;;11.60;4.43;;;;;;;14.25;87.29;101860.41;5052454;28;20009;-69
2022/05/27 01:28:23;;;;;;;10.32;3.45;;;;;;;14.13;89.04;101859.28;5052894;28;20475;-68
2022/05/27 01:31:20;;;;;;;12.07;5.38;;;;;;;14.05;89.57;101861.28;5052707;28;20035;-68
2022/05/27 01:33:54;;;;;;;10.60;3.67;;;;;;;13.95;91.02;101857.06;5052445;28;20162;-69
2022/05/27 01:36:36;;;;;;;14.10;4.45;;;;;;;13.92;91.82;101852.09;5052547;28;20052;-69
2022/05/27 01:39:14;;;;;;;9.80;5.32;;;;;;;13.89;92.24;101851.69;5052610;28;20111;-68
2022/05/27 01:42:10;;;;;;;11.32;4.15;;;;;;;13.80;92.97;101854.47;5052370;28;20025;-69
2022/05/27 01:44:58;;;;;;;11.35;5.75;;;;;;;13.77;93.23;101859.41;5052323;28;20108;-69
2022/05/27 01:47:34;;;;;;;8.57;4.00;;;;;;;13.72;93.91;101851.94;5052184;28;20106;-70
2022/05/27 01:50:10;;;;;;;10.02;4.55;;;;;;;13.67;94.89;101859.72;5052321;28;20115;-69
2022/05/27 01:52:55;;;;;;;10.68;5.55;;;;;;;13.64;95.10;101854.75;5052195;28;20027;-69
2022/05/27 01:55:27;;;;;;;9.48;4.88;;;;;;;13.62;95.48;101858.63;5052193;28;20496;-69
2022/05/27 01:58:08;;;;;;;13.35;4.72;;;;;;;13.59;95.85;101852.63;5052048;28;20036;-69
2022/05/27 02:00:36;;;;;;;14.00;5.88;;;;;;;13.57;96.13;101851.16;5051889;28;20035;-69
2022/05/27 02:03:13;;;;;;;11.88;6.18;;;;;;;13.58;96.66;101860.88;5051988;28;20511;-69
2022/05/27 02:05:47;;;;;;;12.93;4.97;;;;;;;13.56;96.98;101860.25;5052195;28;20427;-69
2022/05/27 02:08:17;;;;;;;13.95;7.18;;;;;;;13.54;96.85;101863.09;5051363;28;20040;-69
2022/05/27 02:11:04;;;;;;;13.98;5.75;;;;;;;13.49;97.73;101868.22;5051020;28;20029;-69
2022/05/27 02:13:38;;;;;;;14.65;4.97;;;;;;;13.49;98.16;101902.22;5051423;28;20036;-69
2022/05/27 02:16:05;;;;;;;14.00;5.72;;;;;;;13.45;98.07;101899.09;5051762;28;20045;-68
2022/05/27 02:18:38;;;;;;;8.40;4.35;;;;;;;13.43;99.01;101894.94;5051582;28;20036;-68
2022/05/27 02:21:18;;;;;;;10.75;3.53;;;;;;;13.38;98.60;101896.31;5051679;28;20033;-68
2022/05/27 02:23:51;;;;;;;9.00;3.42;;;;;;;13.33;98.36;101885.34;5051812;28;20025;-68
2022/05/27 02:26:21;;;;;;;6.57;2.78;;;;;;;13.29;98.31;101897.47;5051712;28;20025;-68
2022/05/27 02:28:51;;;;;;;7.45;3.38;;;;;;;13.22;98.34;101888.50;5051601;28;20035;-68
2022/05/27 02:31:21;;;;;;;5.40;3.45;;;;;;;13.21;98.65;101886.84;5051414;28;20025;-68
2022/05/27 02:36:44;;;;;;;5.13;3.25;;;;;;;13.06;98.46;101889.53;5051729;28;20095;-68
2022/05/27 02:39:10;;;;;;;5.07;2.58;;;;;;;12.97;98.77;101877.28;5051505;28;20094;-68
2022/05/27 02:41:45;;;;;;;7.15;2.28;;;;;;;12.93;99.12;101881.34;5051292;28;20434;-68
2022/05/27 02:44:45;;;;;;;6.75;2.63;;;;;;;12.92;99.44;101871.66;5051341;28;20477;-68
2022/05/27 02:47:31;;;;;;;4.30;2.30;;;;;;;12.82;98.63;101852.38;5051423;28;20028;-68
2022/05/27 02:50:25;;;;;;;4.85;2.70;;;;;;;12.91;99.01;101865.47;5032988;28;20977;-69
2022/05/27 02:53:02;;;;;;;3.03;2.20;;;;;;;12.91;98.62;101867.31;5051060;28;20398;-69
2022/05/27 02:55:42;;;;;;;6.68;2.53;;;;;;;12.88;98.88;101873.06;5051379;28;20376;-68
2022/05/27 02:58:08;;;;;;;4.13;2.03;;;;;;;12.85;98.32;101868.91;5051130;28;20021;-68
2022/05/27 03:00:36;;;;;;;2.17;1.92;;;;;;;12.86;98.79;101869.72;5051166;28;20045;-68
2022/05/27 03:03:02;;;;;;;6.43;2.55;;;;;;;12.86;99.10;101870.56;5051044;28;20071;-68
2022/05/27 03:05:51;;;;;;;3.97;2.78;;;;;;;12.84;99.25;101863.75;5050699;28;20033;-68
2022/05/27 03:08:38;;;;;;;3.78;2.58;;;;;;;12.85;99.49;101868.06;5055539;28;20105;-68
2022/05/27 03:11:20;;;;;;;4.78;2.95;;;;;;;12.81;99.45;101861.41;5069647;28;20078;-68
2022/05/27 03:13:56;;;;;;;6.20;2.60;;;;;;;12.80;99.45;101870.47;5069800;28;20036;-68
2022/05/27 03:16:33;;;;;;;5.72;2.72;;;;;;;12.81;99.79;101866.78;5069900;28;20027;-69
2022/05/27 03:19:16;;;;;;;6.22;3.83;;;;;;;12.80;99.75;101854.41;5069665;28;20635;-68
2022/05/27 03:22:02;;;;;;;6.82;2.90;;;;;;;12.79;100.00;101863.47;5069799;28;20036;-68
2022/05/27 03:24:37;;;;;;;4.80;2.30;;;;;;;12.79;99.72;101858.13;5069537;28;20074;-68
2022/05/27 03:27:08;;;;;;;5.53;2.30;;;;;;;12.78;99.41;101859.13;5069462;28;20072;-68
2022/05/27 03:30:08;;;;;;;5.68;3.00;;;;;;;12.76;100.00;101851.28;5069063;28;20028;-68
2022/05/27 03:32:45;;;;;;;6.85;2.92;;;;;;;12.78;99.98;101859.94;5051667;28;20048;-68
2022/05/27 03:35:13;;;;;;;6.05;2.30;;;;;;;12.78;99.83;101851.09;5069468;28;20028;-69
2022/05/27 03:37:55;;;;;;;7.97;2.97;;;;;;;12.79;100.00;101853.59;5069479;28;20036;-69
2022/05/27 03:40:24;;;;;;;;;;;;;;;12.83;98.85;101846.00;5069872;28;20063;-68
2022/05/27 03:42:51;;;;;;;3.95;2.65;;;;;;;12.83;100.00;101846.81;5069269;28;20259;-68
2022/05/27 03:45:19;;;;;;;8.68;3.65;;;;;;;12.84;100.00;101843.16;5069127;28;20036;-68
2022/05/27 03:47:45;;;;;;;7.15;3.33;;;;;;;12.86;100.00;101846.47;5068929;28;20544;-68
2022/05/27 03:50:16;;;;;;;6.95;2.85;;;;;;;12.88;100.00;101843.59;5068913;28;20057;-68
2022/05/27 03:52:47;;;;;;;5.03;3.47;;;;;;;12.83;100.00;101838.78;5068993;28;20025;-68
2022/05/27 03:55:16;;;;;;;5.22;2.97;;;;;;;12.90;100.00;101854.97;5069008;28;20024;-68
2022/05/27 03:57:41;;;;;;;13.13;3.97;;;;;;;12.91;100.00;101845.91;5069087;28;20113;-68
2022/05/27 04:00:09;;;;;;;6.97;2.90;;;;;;;12.91;100.00;101851.25;5069040;28;20411;-68
2022/05/27 04:02:36;;;;;;;5.60;3.35;;;;;;;12.94;100.00;101848.19;5068808;28;20624;-68
2022/05/27 04:05:01;;;;;;;8.57;3.20;;;;;;;12.96;100.00;101854.19;5069056;28;20031;-68
2022/05/27 04:07:27;;;;;;;6.80;3.10;;;;;;;12.98;100.00;101843.31;5068822;28;20028;-68
2022/05/27 04:09:52;;;;;;;5.78;2.78;;;;;;;12.99;100.00;101856.50;5069089;28;20103;-68
2022/05/27 04:12:19;;;;;;;3.45;2.72;;;;;;;13.00;100.00;101849.31;5068651;28;20052;-68
2022/05/27 04:14:49;;;;;;;3.85;2.95;;;;;;;13.02;99.95;101858.81;5068861;28;20040;-68
2022/05/27 04:17:32;;;;;;;7.50;4.05;;;;;;;13.04;100.00;101861.28;5049203;28;20052;-68
2022/05/27 04:20:02;;;;;;;7.22;3.03;;;;;;;13.06;100.00;101867.28;5049750;28;20111;-69
2022/05/27 04:22:28;;;;;;;5.72;3.28;;;;;;;13.07;99.84;101864.44;5049699;28;20078;-69
2022/05/27 04:24:53;;;;;;;6.40;3.10;;;;;;;13.10;99.85;101863.25;5049420;28;20061;-69
2022/05/27 04:27:20;;;;;;;7.22;3.30;;;;;;;13.10;99.58;101865.91;5049456;28;20020;-68
2022/05/27 04:29:48;;;;;;;7.47;4.18;;;;;;;13.11;99.86;101865.72;5049544;28;20740;-68
2022/05/27 04:32:14;;;;;;;6.50;3.25;;;;;;;13.13;100.00;101874.41;5049485;28;20040;-68
2022/05/27 04:34:40;;;;;;;7.85;3.20;;;;;;;13.14;99.89;101868.00;5050502;28;20082;-68
2022/05/27 04:37:07;;;;;;;7.80;3.50;;;;;;;13.15;100.00;101875.03;5053913;28;21001;-68
2022/05/27 04:39:33;;;;;;;7.13;3.42;;;;;;;13.14;100.00;101857.28;5053657;28;20150;-68
2022/05/27 04:41:58;;;;;;;6.47;3.50;;;;;;;13.18;100.00;101871.16;5053629;28;20496;-69
2022/05/27 04:44:23;;;;;;;7.35;3.45;;;;;;;13.21;100.00;101864.59;5053585;28;20032;-68
2022/05/27 04:46:49;;;;;;;5.95;3.42;;;;;;;13.25;100.00;101866.69;5053497;28;20078;-68
2022/05/27 04:52:16;;;;;;;10.68;4.18;;;;;;;13.36;100.00;101865.38;5011350;28;20045;-69
2022/05/27 04:54:42;;;;;;;9.23;3.75;;;;;;;13.46;100.00;101873.13;5044184;28;20452;-68
2022/05/27 04:57:12;;;;;;;6.47;3.67;;;;;;;13.52;100.00;101870.53;5053316;28;20037;-68
2022/05/27 04:59:39;;;;;;;9.02;4.20;;;;;;;13.61;100.00;101875.75;5053074;28;20076;-68
2022/05/27 05:02:05;;;;;;;12.00;4.72;;;;;;;13.69;100.00;101880.97;5053167;28;20029;-68
2022/05/27 05:04:30;;;;;;;10.38;4.70;;;;;;;13.78;100.00;101878.00;5072363;28;20035;-68
2022/05/27 05:07:00;;;;;;;10.90;5.40;;;;;;;13.84;100.00;101873.69;5054248;28;20036;-68
2022/05/27 05:09:26;;;;;;;9.10;4.60;;;;;;;13.91;100.00;101857.66;5072244;28;20028;-68
2022/05/27 05:11:51;;;;;;;11.73;4.40;;;;;;;13.99;100.00;101868.22;5072188;28;20497;-68
2022/05/27 05:14:16;;;;;;;15.75;5.97;;;;;;;14.08;100.00;101872.44;5071494;28;20039;-68
2022/05/27 05:16:42;;;;;;;15.45;6.25;;;;;;;14.16;100.00;101874.97;5071583;28;20479;-68
2022/05/27 05:19:07;;;;;;;10.85;5.28;;;;;;;14.21;100.00;101879.78;5071413;28;20434;-68
2022/05/27 05:21:32;;;;;;;15.30;5.13;;;;;;;14.23;100.00;101883.91;5071983;28;20040;-68
2022/05/27 05:23:58;;;;;;;21.10;6.70;;;;;;;14.22;100.00;101876.03;5071776;28;20020;-68
2022/05/27 05:26:24;;;;;;;13.23;5.07;;;;;;;14.28;100.00;101891.38;5071884;28;20037;-69
2022/05/27 05:28:49;;;;;;;9.75;5.35;;;;;;;14.30;100.00;101885.81;5071656;28;20028;-68
2022/05/27 05:31:16;;;;;;;15.32;5.70;;;;;;;14.32;99.57;101892.63;5071771;28;20032;-68
2022/05/27 05:33:43;;;;;;;13.70;6.20;;;;;;;14.37;99.42;101898.25;5071777;28;20085;-68
2022/05/27 05:36:08;;;;;;;10.57;4.97;;;;;;;14.41;98.73;101898.72;5071785;28;20089;-69
2022/05/27 05:38:33;;;;;;;8.85;5.03;;;;;;;14.45;98.44;101906.16;5052445;28;20032;-70
2022/05/27 05:40:59;;;;;;;14.93;5.90;;;;;;;14.46;98.38;101902.44;5052532;28;20029;-69
2022/05/27 05:43:24;;;;;;;15.35;6.00;;;;;;;14.48;97.42;101907.59;5052481;28;20095;-68
2022/05/27 05:45:50;;;;;;;12.50;5.03;;;;;;;14.49;97.41;101903.91;5052074;28;20164;-69
2022/05/27 05:48:15;;;;;;;9.23;4.03;;;;;;;14.49;97.42;101903.91;5052344;28;20064;-68
2022/05/27 05:50:41;;;;;;;11.13;4.38;;;;;;;14.51;97.19;101906.38;5052247;28;20060;-69
2022/05/27 05:53:06;;;;;;;9.27;4.00;;;;;;;14.51;96.67;101917.94;5052130;28;20908;-68
2022/05/27 05:55:35;;;;;;;18.33;5.55;;;;;;;14.52;96.17;101921.50;5052169;28;20384;-68
2022/05/27 05:58:02;;;;;;;13.05;4.80;;;;;;;14.55;95.75;101924.63;5034927;28;20024;-68
2022/05/27 06:00:27;;;;;;;13.15;4.35;;;;;;;14.70;95.68;101916.47;5052085;28;20029;-70
2022/05/27 06:02:53;;;;;;;15.90;5.55;;;;;;;14.82;95.53;101927.47;5052163;28;20503;-69
2022/05/27 06:05:20;;;;;;;9.88;4.60;;;;;;;14.82;95.17;101928.28;5052054;28;20029;-69
2022/05/27 06:07:46;;;;;;;12.30;4.50;;;;;;;14.78;92.97;101928.91;5051937;28;20520;-69
2022/05/27 06:10:14;;;;;;;9.05;3.85;;;;;;;14.69;92.68;101925.53;5052212;28;20112;-68
2022/05/27 06:12:40;;;;;;;12.15;4.80;;;;;;;14.67;93.28;101925.75;5051842;28;20029;-68
2022/05/27 06:15:09;;;;;;;11.63;3.95;;;;;;;14.62;92.82;101927.38;5051243;28;20056;-68
2022/05/27 06:17:34;;;;;;;10.38;5.03;;;;;;;14.62;91.71;101930.88;5051349;28;20041;-69
2022/05/27 06:20:00;;;;;;;10.02;4.03;;;;;;;14.64;90.07;101926.13;5051813;28;20021;-69
2022/05/27 06:22:26;;;;;;;10.95;3.58;;;;;;;14.69;89.04;101920.97;5051558;28;20398;-68
2022/05/27 06:24:51;;;;;;;10.30;3.67;;;;;;;14.75;88.83;101929.28;5051731;28;20025;-68
2022/05/27 06:27:17;;;;;;;10.60;4.30;;;;;;;14.79;88.51;101935.94;5051544;28;20037;-68
2022/05/27 06:35:10;;;;;;;8.57;2.67;;;;;;;14.72;87.81;101943.94;5051387;28;20657;-69
2022/05/27 06:37:36;;;;;;;6.93;2.50;;;;;;;14.73;86.44;101940.22;5051408;28;20037;-68
2022/05/27 06:40:03;;;;;;;9.00;3.25;;;;;;;14.76;85.49;101934.47;5051119;28;20037;-69
2022/05/27 06:42:28;;;;;;;14.32;2.97;;;;;;;14.86;87.05;101950.22;5070131;28;20028;-69
2022/05/27 06:44:53;;;;;;;11.43;3.13;;;;;;;14.90;84.74;101938.03;5070177;28;20036;-68
2022/05/27 06:47:19;;;;;;;5.75;3.33;;;;;;;14.93;85.13;101939.50;5070246;28;20064;-68
2022/05/27 06:49:44;;;;;;;7.30;2.85;;;;;;;14.95;83.71;101935.59;5070087;28;20060;-68
2022/05/27 06:52:11;;;;;;;12.23;4.13;;;;;;;14.97;83.73;101930.03;5070242;28;20074;-68
2022/05/27 06:54:36;;;;;;;8.90;2.65;;;;;;;14.97;83.33;101927.34;5069714;28;20064;-70
2022/05/27 06:57:04;;;;;;;7.72;3.25;;;;;;;14.98;82.47;101935.19;5069562;28;20055;-69
2022/05/27 06:59:30;;;;;;;7.40;1.98;;;;;;;15.03;75.67;101948.84;5070159;28;20033;-69
2022/05/27 07:01:56;;;;;;;11.40;3.38;;;;;;;15.07;76.47;101946.63;5070165;28;20047;-70
2022/05/27 07:04:21;;;;;;;6.15;2.55;;;;;;;15.11;75.87;101947.88;5070055;28;20032;-70
2022/05/27 07:06:48;;;;;;;9.90;1.88;;;;;;;15.11;73.81;101951.38;5069775;28;20836;-70
2022/05/27 07:09:19;;;;;;;11.90;2.72;;;;;;;15.15;75.57;101951.00;5069755;28;20040;-69
2022/05/27 07:11:46;;;;;;;10.10;3.57;;;;;;;15.23;74.67;101951.66;5069824;28;20490;-67
2022/05/27 07:14:13;;;;;;;7.18;2.42;;;;;;;15.39;76.50;101947.78;5069622;28;20472;-69
2022/05/27 07:16:38;;;;;;;5.90;2.22;;;;;;;15.50;74.60;101954.44;5069547;28;20036;-69
2022/05/27 07:19:04;;;;;;;8.90;3.63;;;;;;;15.50;72.86;101952.56;5069559;28;20094;-69
2022/05/27 07:21:30;;;;;;;3.75;1.88;;;;;;;15.49;72.29;101950.09;5053868;28;20037;-70
2022/05/27 07:23:56;;;;;;;8.07;2.60;;;;;;;15.49;72.70;101950.91;5050414;28;20029;-70
2022/05/27 07:26:24;;;;;;;9.95;2.35;;;;;;;15.56;72.55;101951.78;5050522;28;20033;-69
2022/05/27 07:28:50;;;;;;;12.90;3.70;;;;;;;15.71;73.14;101957.00;5050605;28;20032;-69
2022/05/27 07:31:17;;;;;;;6.07;2.40;;;;;;;15.84;69.70;101956.19;5050320;28;20060;-69
2022/05/27 07:33:44;;;;;;;7.43;2.22;;;;;;;15.79;68.55;101958.66;5050352;28;20025;-68
2022/05/27 07:36:10;;;;;;;6.63;2.70;;;;;;;15.73;71.16;101962.19;5050271;28;20025;-70
2022/05/27 07:38:35;;;;;;;9.25;2.80;;;;;;;15.71;69.74;101962.38;5050279;28;20547;-69
2022/05/27 07:41:00;;;;;;;5.68;1.77;;;;;;;15.72;70.32;101965.91;5050282;28;20064;-70
2022/05/27 07:43:26;;;;;;;6.50;2.72;;;;;;;15.84;70.36;101971.50;5050193;28;20456;-69
2022/05/27 07:45:52;;;;;;;8.50;2.45;;;;;;;15.86;70.48;101980.22;5049760;28;20492;-69
2022/05/27 07:48:17;;;;;;;14.73;3.70;;;;;;;15.87;69.74;101973.78;5049786;28;20029;-70
2022/05/27 07:50:43;;;;;;;9.98;2.72;;;;;;;15.90;71.40;101976.91;5049952;28;20114;-69
2022/05/27 07:53:09;;;;;;;7.47;2.30;;;;;;;15.94;68.79;101982.72;5049882;28;20029;-69
2022/05/27 07:55:34;;;;;;;8.48;2.90;;;;;;;15.99;69.87;101974.84;5049836;28;20086;-69
2022/05/27 07:58:00;;;;;;;8.57;3.08;;;;;;;16.17;71.64;101979.63;5068891;28;20070;-69
2022/05/27 08:00:29;;;;;;;10.75;3.83;;;;;;;16.27;70.39;101982.75;5068915;28;20030;-70
2022/05/27 08:02:55;;;;;;;17.30;4.40;;;;;;;16.23;69.52;101976.09;5068839;28;20486;-70
2022/05/27 08:05:23;;;;;;;7.38;3.15;;;;;;;16.14;69.00;101980.06;5069001;28;20028;-70
2022/05/27 08:07:50;;;;;;;10.93;3.42;;;;;;;16.06;68.92;101981.06;5069023;28;20033;-69
2022/05/27 08:10:19;;;;;;;9.55;2.30;;;;;;;16.26;68.22;101991.84;5069009;28;20031;-69
2022/05/27 08:12:45;;;;;;;9.60;2.83;;;;;;;16.11;68.31;101992.06;5068709;28;20028;-69
2022/05/27 08:15:12;;;;;;;9.30;3.00;;;;;;;16.25;68.31;101986.69;5068427;28;20078;-69
2022/05/27 08:17:39;;;;;;;10.70;2.40;;;;;;;16.36;66.96;102003.03;5068273;28;20029;-70
2022/05/27 08:20:06;;;;;;;7.00;2.40;;;;;;;16.27;68.35;101993.53;5068229;28;20094;-70
2022/05/27 08:22:32;;;;;;;7.72;2.40;;;;;;;17.92;62.48;101996.81;5068101;28;20039;-70
2022/05/27 08:24:57;;;;;;;12.88;3.13;;;;;;;19.89;56.32;101995.25;5068495;28;20028;-70
2022/05/27 08:27:23;;;;;;;10.65;2.70;;;;;;;21.47;52.73;101987.22;5068217;28;20028;-70
2022/05/27 08:29:48;;;;;;;7.07;2.08;;;;;;;22.54;47.71;101989.09;5068644;28;20032;-71
2022/05/27 08:32:14;;;;;;;6.85;1.90;;;;;;;23.04;46.26;101987.38;5068015;28;20037;-70
2022/05/27 08:40:26;;;;;;;10.30;2.80;;;;;;;24.54;45.50;101996.78;5068664;28;20131;-70
2022/05/27 08:43:13;;;;;;;6.85;2.33;;;;;;;24.60;45.02;102000.34;5068473;28;20032;-69
2022/05/27 08:45:54;;;;;;;8.18;1.95;;;;;;;24.19;42.98;101997.31;5068640;28;20040;-70
2022/05/27 08:48:22;;;;;;;12.93;3.70;;;;;;;22.40;43.61;102001.41;5067945;28;20040;-69
2022/05/27 08:51:13;;;;;;;11.43;3.13;;;;;;;20.80;49.96;101995.81;5067940;28;20052;-69
2022/05/27 08:53:48;;;;;;;7.00;1.75;;;;;;;19.22;50.52;101995.25;5068290;28;20028;-70
2022/05/27 08:59:46;;;;;;;32.03;8.55;;;;;;;20.26;49.57;102004.03;5068604;28;20090;-70
2022/05/27 09:02:35;;;;;;;11.10;2.92;;;;;;;19.76;52.48;102003.56;5037002;28;20036;-70
2022/05/27 09:05:16;;;;;;;10.10;2.67;;;;;;;19.01;52.98;101997.34;5068499;28;20033;-70
2022/05/27 09:08:03;;;;;;;6.93;2.13;;;;;;;18.75;56.19;102000.34;5068439;28;20024;-70
2022/05/27 09:10:52;;;;;;;12.52;2.85;;;;;;;18.67;55.40;102000.59;5068349;28;20032;-70
2022/05/27 09:13:24;;;;;;;11.15;2.33;;;;;;;18.22;54.61;102001.59;5067944;28;20028;-70
2022/05/27 09:16:01;;;;;;;12.00;2.90;;;;;;;17.84;54.57;102013.28;5068358;28;20079;-70
2022/05/27 09:18:54;;;;;;;12.07;3.15;;;;;;;17.61;54.12;102013.78;5068045;28;20017;-70
2022/05/27 09:21:32;;;;;;;7.80;2.45;;;;;;;17.62;53.86;102014.59;5069837;28;20017;-70
2022/05/27 09:24:17;;;;;;;7.95;3.35;;;;;;;17.69;54.08;102007.31;5071750;28;20032;-70
2022/05/27 09:26:48;;;;;;;10.82;3.35;;;;;;;17.64;53.10;102009.81;5071927;28;20107;-70
2022/05/27 09:29:41;;;;;;;9.80;3.03;;;;;;;17.52;56.55;102013.19;5071267;28;20035;-70
2022/05/27 09:32:25;;;;;;;11.23;4.32;;;;;;;17.40;55.70;101998.72;5071685;28;20552;-70
2022/05/27 09:34:51;;;;;;;6.25;2.40;;;;;;;17.58;55.17;102016.91;5071406;28;20020;-70
2022/05/27 09:37:25;;;;;;;8.25;3.10;;;;;;;17.56;55.16;102021.69;5071313;28;20360;-70
2022/05/27 09:39:55;;;;;;;8.73;2.95;;;;;;;17.27;55.54;102023.88;5071683;28;20025;-70
2022/05/27 09:42:30;;;;;;;9.52;2.72;;;;;;;17.32;56.53;102028.63;5071380;28;20036;-70
2022/05/27 09:44:58;;;;;;;13.27;4.25;;;;;;;17.40;54.63;102031.09;5071792;28;20059;-70
2022/05/27 09:47:29;;;;;;;10.40;3.15;;;;;;;17.44;52.87;102029.59;5071582;28;20036;-70
2022/05/27 09:50:00;;;;;;;5.00;2.80;;;;;;;17.40;55.03;102038.34;5071385;28;20123;-70
2022/05/27 09:52:29;;;;;;;13.15;3.95;;;;;;;17.37;55.23;102041.47;5071467;28;20027;-70
2022/05/27 09:55:00;;;;;;;7.50;2.85;;;;;;;17.23;55.25;102037.97;5071059;28;20032;-70
2022/05/27 09:57:29;;;;;;;9.95;2.83;;;;;;;17.37;53.63;102036.06;5071189;28;20029;-70
2022/05/27 09:59:58;;;;;;;11.90;3.83;;;;;;;17.55;54.21;102027.28;5071115;28;20051;-69
2022/05/27 10:02:35;;;;;;;7.18;2.90;;;;;;;17.58;54.24;102037.66;5071142;28;20029;-70
2022/05/27 10:05:22;;;;;;;11.10;2.70;;;;;;;17.49;53.85;102037.88;5070531;28;20032;-70
2022/05/27 10:07:54;;;;;;;6.30;2.22;;;;;;;17.57;58.14;102025.22;5070978;28;20020;-70
2022/05/27 10:10:30;;;;;;;;;;;;;;;17.78;56.20;102030.28;5071487;28;20035;-70
2022/05/27 10:13:12;;;;;;;10.02;2.05;;;;;;;17.73;51.64;102025.53;5071042;28;19916;-70
2022/05/27 10:15:38;;;;;;;5.97;2.50;;;;;;;17.64;51.63;102024.13;5070847;28;20471;-70
2022/05/27 10:18:23;;;;;;;11.05;3.50;;;;;;;17.69;53.18;102035.13;5070976;28;20475;-70
2022/05/27 10:21:02;;;;;;;7.10;2.60;;;;;;;17.59;54.04;102032.03;5051294;28;20057;-70
2022/05/27 10:23:41;;;;;;;6.53;3.10;;;;;;;17.46;51.39;102029.41;5033335;28;20456;-70
2022/05/27 10:26:19;;;;;;;6.57;2.83;;;;;;;17.54;50.73;102026.47;5051615;28;20028;-70
2022/05/27 10:28:56;;;;;;;12.85;2.55;;;;;;;17.72;51.73;102029.28;5051509;28;20024;-70
2022/05/27 10:31:21;;;;;;;10.57;2.88;;;;;;;17.90;49.37;102039.41;5051311;28;20106;-70
2022/05/27 10:33:47;;;;;;;7.97;2.67;;;;;;;18.04;48.73;102034.72;5050312;28;20479;-70
2022/05/27 10:36:38;;;;;;;8.20;3.55;;;;;;;18.18;50.14;102030.06;5051409;28;20035;-70
2022/05/27 10:39:05;;;;;;;8.70;2.55;;;;;;;18.28;51.69;102045.78;5070402;28;20475;-70
2022/05/27 10:41:32;;;;;;;9.30;4.05;;;;;;;18.31;49.53;102038.09;5070522;28;20016;-71
2022/05/27 10:44:08;;;;;;;9.70;3.17;;;;;;;18.14;51.66;102040.50;5070473;28;20028;-70
2022/05/27 10:46:43;;;;;;;7.32;2.70;;;;;;;17.95;49.79;102036.06;5070659;28;20036;-70
2022/05/27 10:49:36;;;;;;;6.82;2.90;;;;;;;18.11;49.98;102040.94;5070211;28;20532;-70
2022/05/27 10:52:28;;;;;;;7.75;2.80;;;;;;;18.15;49.38;102052.13;5070294;28;20468;-70
2022/05/27 10:55:08;;;;;;;6.88;2.35;;;;;;;17.77;50.13;102041.31;5070386;28;20427;-70
2022/05/27 11:04:00;;;;;;;8.15;3.25;;;;;;;17.77;51.49;102044.00;5070059;28;20054;-71
2022/05/27 11:07:08;;;;;;;8.48;3.10;;;;;;;17.75;51.73;102045.03;5069966;28;20021;-71
2022/05/27 11:09:45;;;;;;;9.27;3.60;;;;;;;17.47;50.54;102053.44;5069793;28;20107;-71
2022/05/27 11:15:10;;;;;;;7.25;2.67;;;;;;;17.50;53.49;102042.25;5069899;28;20028;-71
2022/05/27 11:15:58;;;;;;;5.28;2.47;;;;;;;17.85;48.51;102044.63;5069442;28;20135;-71
2022/05/27 11:18:36;;;;;;;16.08;2.63;;;;;;;17.89;48.61;102050.41;5035056;28;20052;-71
2022/05/27 11:21:20;;;;;;;9.63;2.55;;;;;;;17.95;49.52;102036.88;5069284;28;20028;-71
2022/05/27 11:23:58;;;;;;;4.88;2.15;;;;;;;17.94;46.23;102048.69;5069443;28;20479;-71
2022/05/27 11:26:48;;;;;;;10.68;3.25;;;;;;;17.94;47.24;102051.41;5069698;28;20032;-70
2022/05/27 11:29:42;;;;;;;9.57;2.60;;;;;;;17.90;48.04;102046.66;5069419;28;20078;-70
2022/05/27 11:32:36;;;;;;;12.52;2.80;;;;;;;17.64;49.33;102058.38;5069458;28;20032;-66
2022/05/27 11:35:22;;;;;;;7.68;3.65;;;;;;;17.46;49.52;102059.91;5069237;28;20040;-66
2022/05/27 11:38:15;;;;;;;7.80;2.40;;;;;;;17.63;51.13;102056.72;5069379;28;20031;-67
2022/05/27 11:41:04;;;;;;;10.18;2.47;;;;;;;17.84;49.46;102052.91;5069229;28;20464;-66
2022/05/27 11:43:39;;;;;;;3.85;1.80;;;;;;;17.88;47.68;102056.84;5069056;28;20028;-66
2022/05/27 11:46:13;;;;;;;5.45;1.98;;;;;;;17.91;47.56;102053.72;5069172;28;21078;-66
2022/05/27 11:49:00;;;;;;;7.38;2.13;;;;;;;17.94;47.07;102061.38;5069316;28;20028;-67
2022/05/27 11:51:44;;;;;;;4.18;2.20;;;;;;;18.05;48.56;102070.66;5068889;28;20084;-66
2022/05/27 11:54:36;;;;;;;5.57;2.03;;;;;;;18.00;46.42;102065.94;5069068;28;20105;-66
2022/05/27 11:57:29;;;;;;;12.77;3.00;;;;;;;17.82;46.84;102079.31;5069164;28;20499;-66
2022/05/27 11:59:59;;;;;;;10.75;3.10;;;;;;;17.74;46.89;102064.16;5068993;28;20028;-66
2022/05/27 12:02:37;;;;;;;9.47;3.50;;;;;;;17.79;46.55;102060.78;5069121;28;20024;-66
2022/05/27 12:05:05;;;;;;;12.82;4.22;;;;;;;17.81;46.02;102067.66;5069012;28;20012;-66
2022/05/27 12:07:42;;;;;;;8.73;1.95;;;;;;;18.00;49.04;102065.94;5069005;28;20058;-66
2022/05/27 12:10:17;;;;;;;5.40;2.08;;;;;;;18.02;45.81;102068.41;5068950;28;20708;-66
2022/05/27 12:13:17;;;;;;;9.77;2.15;;;;;;;17.80;42.83;102067.91;5068769;28;20499;-65
2022/05/27 12:15:49;;;;;;;7.70;2.63;;;;;;;17.68;44.00;102059.59;5057958;28;20053;-66